Capt. Gary E. Moss — WDH7389 — position and weather

sailwx.info

Track history (hours):
 
Tides and Currents Weather Stations Pressure Air Temp Water Temp Dewpoint Dewpoint Depression Visibility Wind Speed Wind Dir Waves Ship Positions

Capt. Gary E. Moss

Owner: Blessey Enterprises, Inc., Harahan, LA. More information available from US FCC via Universal Licensing System and Coast Guard Vessel Documentation Center.

Last reported at 2018-Apr-18 00:43 UTC. Time now 2018-Apr-24 02:47 UTC.
Position N 29°34' W 090°28'.

Length 26 m.

Type: Towing. MMSI: 367647650.

Date/timePositionNaut miles runAvg speedWind from/ knotsBaromVisibWave heightAir tempDewpointWater temp
2018-Apr-18 00:43N 29°34' W 090°28'1 5.2
2018-Apr-18 00:29N 29°34' W 090°30'2 4.4
2018-Apr-18 00:00N 29°34' W 090°32'3 5.1
2018-Apr-17 23:29N 29°35' W 090°35'2 4.4
2018-Apr-17 23:00N 29°35' W 090°37'3 5.3
2018-Apr-17 22:31N 29°36' W 090°40'2 4.3
2018-Apr-17 22:00N 29°36' W 090°43'2 4.4
2018-Apr-17 21:31N 29°34' W 090°43'3 5.2
2018-Apr-17 21:00N 29°33' W 090°45'3 5.5
2018-Apr-17 20:30N 29°32' W 090°49'120 2.7
2018-Apr-15 23:24N 29°56' W 093°04'2 4.1
2018-Apr-15 22:59N 29°56' W 093°06'0 0.0
2018-Apr-15 22:30N 29°56' W 093°06'0 0.2
2018-Apr-15 22:00N 29°56' W 093°06'0 0.5
2018-Apr-15 21:29N 29°56' W 093°06'1 1.4
2018-Apr-15 21:00N 29°56' W 093°07'2 4.5
2018-Apr-15 20:30N 29°56' W 093°10'2 3.1
2018-Apr-15 20:00N 29°58' W 093°11'2 4.5
2018-Apr-15 19:30N 29°59' W 093°13'2 4.1
2018-Apr-15 19:00N 30°01' W 093°14'2 3.9
2018-Apr-15 18:30N 30°02' W 093°15'2 3.9
2018-Apr-15 18:00N 30°04' W 093°16'2 3.5
2018-Apr-15 17:30N 30°05' W 093°18'1 2.2
2018-Apr-15 17:01N 30°06' W 093°19'2 3.1
2018-Apr-15 16:30N 30°07' W 093°20'1 2.3
2018-Apr-15 16:01N 30°08' W 093°20'1 1.2
2018-Apr-15 15:31N 30°08' W 093°19'0 0.0
2018-Apr-15 14:59N 30°08' W 093°19'0 0.0
2018-Apr-15 14:30N 30°08' W 093°19'0 0.0
2018-Apr-15 13:57N 30°08' W 093°19'0 0.0
2018-Apr-15 13:30N 30°08' W 093°19'0 0.0
2018-Apr-15 12:56N 30°08' W 093°19'0 0.0
2018-Apr-15 12:30N 30°08' W 093°19'0 0.0
2018-Apr-15 12:00N 30°08' W 093°19'0 0.0
2018-Apr-15 11:30N 30°08' W 093°19'0 0.0
2018-Apr-15 10:58N 30°08' W 093°19'0 0.0
2018-Apr-15 10:27N 30°08' W 093°19'0 0.0
2018-Apr-15 09:59N 30°08' W 093°19'0 0.0
2018-Apr-15 09:30N 30°08' W 093°19'0 0.0
2018-Apr-15 09:00N 30°08' W 093°19'0 0.0
2018-Apr-15 08:30N 30°08' W 093°19'0 0.0
2018-Apr-15 08:00N 30°08' W 093°19'0 0.0
2018-Apr-15 07:30N 30°08' W 093°19'0 0.0
2018-Apr-15 07:00N 30°08' W 093°19'0 0.0
2018-Apr-15 06:29N 30°08' W 093°19'0 0.0
2018-Apr-15 06:00N 30°08' W 093°19'0 0.0
2018-Apr-15 05:30N 30°08' W 093°19'0 0.0
2018-Apr-15 04:59N 30°08' W 093°19'0 0.0
2018-Apr-15 04:30N 30°08' W 093°19'0 0.0
2018-Apr-15 04:00N 30°08' W 093°19'0 0.1
2018-Apr-15 03:30N 30°08' W 093°19'1 1.1
2018-Apr-15 03:01N 30°08' W 093°20'3 5.3
2018-Apr-15 02:30N 30°11' W 093°19'2 3.6
2018-Apr-15 02:00N 30°12' W 093°17'1 2.7
2018-Apr-15 01:30N 30°12' W 093°16'1 2.8
2018-Apr-15 01:00N 30°14' W 093°16'0 0.0
2018-Apr-15 00:30N 30°14' W 093°16'0 0.6
2018-Apr-15 00:00N 30°14' W 093°15'0 0.0
2018-Apr-14 23:31N 30°14' W 093°15'0 0.0
2018-Apr-14 23:00N 30°14' W 093°15'0 0.0
2018-Apr-14 22:30N 30°14' W 093°15'0 0.0
2018-Apr-14 22:01N 30°14' W 093°15'0 0.0
2018-Apr-14 21:30N 30°14' W 093°15'0 0.0
2018-Apr-14 21:00N 30°14' W 093°15'0 0.0
2018-Apr-14 20:30N 30°14' W 093°15'0 0.0
2018-Apr-14 20:00N 30°14' W 093°15'0 0.0
2018-Apr-14 19:30N 30°14' W 093°15'0 0.0
2018-Apr-14 18:59N 30°14' W 093°15'0 0.0
2018-Apr-14 18:30N 30°14' W 093°15'0 0.0
2018-Apr-14 18:01N 30°14' W 093°15'0 0.0
2018-Apr-14 17:30N 30°14' W 093°15'0 0.0
2018-Apr-14 17:00N 30°14' W 093°15'0 0.0
2018-Apr-14 16:30N 30°14' W 093°15'0 0.0
2018-Apr-14 16:01N 30°14' W 093°15'0 0.0
2018-Apr-14 15:30N 30°14' W 093°15'0 0.0
2018-Apr-14 15:00N 30°14' W 093°15'0 0.0
2018-Apr-14 14:30N 30°14' W 093°15'0 0.0
2018-Apr-14 14:00N 30°14' W 093°15'0 0.0
2018-Apr-14 13:30N 30°14' W 093°15'0 0.0
2018-Apr-14 13:00N 30°14' W 093°15'0 0.0
2018-Apr-14 12:30N 30°14' W 093°15'0 0.0
2018-Apr-14 12:01N 30°14' W 093°15'0 0.0
2018-Apr-14 11:30N 30°14' W 093°15'0 0.0
2018-Apr-14 11:00N 30°14' W 093°15'0 0.0
2018-Apr-14 10:30N 30°14' W 093°15'0 0.0
2018-Apr-14 10:00N 30°14' W 093°15'0 0.0
2018-Apr-14 09:31N 30°14' W 093°15'0 0.0
2018-Apr-14 09:00N 30°14' W 093°15'0 0.0
2018-Apr-14 08:30N 30°14' W 093°15'0 0.0
2018-Apr-14 08:00N 30°14' W 093°15'0 0.0
2018-Apr-14 07:31N 30°14' W 093°15'0 0.0
2018-Apr-14 07:00N 30°14' W 093°15'0 0.0
2018-Apr-14 06:30N 30°14' W 093°15'0 0.0
2018-Apr-14 06:00N 30°14' W 093°15'0 0.0
2018-Apr-14 05:30N 30°14' W 093°15'0 0.0
2018-Apr-14 05:00N 30°14' W 093°15'0 0.0
2018-Apr-14 04:30N 30°14' W 093°15'0 0.0
2018-Apr-14 04:00N 30°14' W 093°15'0 0.0
2018-Apr-14 03:30N 30°14' W 093°15'0 0.0
2018-Apr-14 03:00N 30°14' W 093°15'0 0.0
2018-Apr-14 02:30N 30°14' W 093°15'0 0.0
2018-Apr-14 02:00N 30°14' W 093°15'0 0.0
2018-Apr-14 01:30N 30°14' W 093°15'0 0.0
2018-Apr-14 01:00N 30°14' W 093°15'0 0.0
2018-Apr-14 00:30N 30°14' W 093°15'0 0.0
2018-Apr-14 00:01N 30°14' W 093°15'0 0.0
2018-Apr-13 23:30N 30°14' W 093°15'0 0.0
2018-Apr-13 23:00N 30°14' W 093°15'0 0.0
2018-Apr-13 22:30N 30°14' W 093°15'0 0.0
2018-Apr-13 22:00N 30°14' W 093°15'0 0.0
2018-Apr-13 21:30N 30°14' W 093°15'0 0.0
2018-Apr-13 21:00N 30°14' W 093°15'0 0.0
2018-Apr-13 20:30N 30°14' W 093°15'0 0.0
2018-Apr-13 20:00N 30°14' W 093°15'0 0.0
2018-Apr-13 19:30N 30°14' W 093°15'0 0.0
2018-Apr-13 19:00N 30°14' W 093°15'0 0.0
2018-Apr-13 18:31N 30°14' W 093°15'0 0.0
2018-Apr-13 18:00N 30°14' W 093°15'0 0.0
2018-Apr-13 17:30N 30°14' W 093°15'0 0.0
2018-Apr-13 17:00N 30°14' W 093°15'0 0.0
2018-Apr-13 16:30N 30°14' W 093°15'0 0.0
2018-Apr-13 16:00N 30°14' W 093°15'0 0.0
2018-Apr-13 15:30N 30°14' W 093°15'0 0.0
2018-Apr-13 15:00N 30°14' W 093°15'0 0.0
2018-Apr-13 14:30N 30°14' W 093°15'0 0.0
2018-Apr-13 14:00N 30°14' W 093°15'0 0.0
2018-Apr-13 13:30N 30°14' W 093°15'0 0.1
2018-Apr-13 13:00N 30°14' W 093°15'1 1.3
2018-Apr-13 12:30N 30°13' W 093°16'0 0.2
2018-Apr-13 12:00N 30°13' W 093°16'0 0.1
2018-Apr-13 11:30N 30°13' W 093°16'0 0.0
2018-Apr-13 11:00N 30°13' W 093°16'0 0.0
2018-Apr-13 10:30N 30°13' W 093°16'0 0.0
2018-Apr-13 10:00N 30°13' W 093°16'0 0.0
2018-Apr-13 09:30N 30°13' W 093°16'0 0.0
2018-Apr-13 09:00N 30°13' W 093°16'0 0.0
2018-Apr-13 08:30N 30°13' W 093°16'0 0.0
2018-Apr-13 08:00N 30°13' W 093°16'0 0.0
2018-Apr-13 07:30N 30°13' W 093°16'0 0.0
2018-Apr-13 06:59N 30°13' W 093°16'0 0.0
2018-Apr-13 06:31N 30°13' W 093°16'0 0.0
2018-Apr-13 06:00N 30°13' W 093°16'0 0.0
2018-Apr-13 05:30N 30°13' W 093°16'0 0.0
2018-Apr-13 05:00N 30°13' W 093°16'0 0.0
2018-Apr-13 04:30N 30°13' W 093°16'0 0.0
2018-Apr-13 04:00N 30°13' W 093°16'1 1.6
2018-Apr-13 03:30N 30°13' W 093°16'2 5.0
2018-Apr-13 03:00N 30°11' W 093°18'2 4.5
2018-Apr-13 02:30N 30°10' W 093°20'3 5.7
2018-Apr-13 02:00N 30°07' W 093°20'1 2.5
2018-Apr-13 01:30N 30°06' W 093°19'1 2.9
2018-Apr-13 01:00N 30°05' W 093°17'1 1.9
2018-Apr-13 00:30N 30°05' W 093°17'0 0.6
2018-Apr-13 00:00N 30°04' W 093°16'2 3.4
2018-Apr-12 23:31N 30°03' W 093°16'2 3.7
2018-Apr-12 23:00N 30°02' W 093°14'2 4.3
2018-Apr-12 22:30N 29°60' W 093°13'2 4.6
2018-Apr-12 22:00N 29°58' W 093°11'2 4.7
2018-Apr-12 21:30N 29°56' W 093°10'2 4.6
2018-Apr-12 21:00N 29°56' W 093°07'2 1.5
2018-Apr-12 19:54N 29°56' W 093°05'41 4.3
2018-Apr-12 10:15N 29°50' W 092°18'71 2.3
2018-Apr-11 03:13N 29°36' W 090°58'2 4.5
2018-Apr-11 02:43N 29°34' W 090°57'1 3.3
2018-Apr-11 02:29N 29°34' W 090°56'3 4.5
2018-Apr-11 01:51N 29°32' W 090°53'1 4.2
2018-Apr-11 01:30N 29°32' W 090°51'2 4.6
2018-Apr-11 01:00N 29°32' W 090°49'2 4.3
2018-Apr-11 00:30N 29°32' W 090°46'2 3.8
2018-Apr-11 00:00N 29°34' W 090°45'2 3.4
2018-Apr-10 23:30N 29°34' W 090°43'0 0.9
2018-Apr-10 23:00N 29°35' W 090°43'2 3.6
2018-Apr-10 22:30N 29°36' W 090°43'2 3.6
2018-Apr-10 22:00N 29°36' W 090°40'2 4.3
2018-Apr-10 21:30N 29°35' W 090°38'2 4.1
2018-Apr-10 21:00N 29°35' W 090°36'2 3.9
2018-Apr-10 20:30N 29°34' W 090°34'  
Track history (hours):
 
Tides and Currents Weather Stations Pressure Air Temp Water Temp Dewpoint Dewpoint Depression Visibility Wind Speed Wind Dir Waves Ship Positions

Capt. Gary E. Moss

Owner: Blessey Enterprises, Inc., Harahan, LA. More information available from US FCC via Universal Licensing System and Coast Guard Vessel Documentation Center.

Last reported at 2018-Apr-18 00:43 UTC. Time now 2018-Apr-24 02:47 UTC.
Position N 29°34' W 090°28'.

Length 26 m.

Type: Towing. MMSI: 367647650.

Date/timePositionNaut miles runAvg speedWind from/ knotsBaromVisibWave heightAir tempDewpointWater temp
2018-Apr-18 00:43N 29°34' W 090°28'1 5.2
2018-Apr-18 00:29N 29°34' W 090°30'2 4.4
2018-Apr-18 00:00N 29°34' W 090°32'3 5.1
2018-Apr-17 23:29N 29°35' W 090°35'2 4.4
2018-Apr-17 23:00N 29°35' W 090°37'3 5.3
2018-Apr-17 22:31N 29°36' W 090°40'2 4.3
2018-Apr-17 22:00N 29°36' W 090°43'2 4.4
2018-Apr-17 21:31N 29°34' W 090°43'3 5.2
2018-Apr-17 21:00N 29°33' W 090°45'3 5.5
2018-Apr-17 20:30N 29°32' W 090°49'120 2.7
2018-Apr-15 23:24N 29°56' W 093°04'2 4.1
2018-Apr-15 22:59N 29°56' W 093°06'0 0.0
2018-Apr-15 22:30N 29°56' W 093°06'0 0.2
2018-Apr-15 22:00N 29°56' W 093°06'0 0.5
2018-Apr-15 21:29N 29°56' W 093°06'1 1.4
2018-Apr-15 21:00N 29°56' W 093°07'2 4.5
2018-Apr-15 20:30N 29°56' W 093°10'2 3.1
2018-Apr-15 20:00N 29°58' W 093°11'2 4.5
2018-Apr-15 19:30N 29°59' W 093°13'2 4.1
2018-Apr-15 19:00N 30°01' W 093°14'2 3.9
2018-Apr-15 18:30N 30°02' W 093°15'2 3.9
2018-Apr-15 18:00N 30°04' W 093°16'2 3.5
2018-Apr-15 17:30N 30°05' W 093°18'1 2.2
2018-Apr-15 17:01N 30°06' W 093°19'2 3.1
2018-Apr-15 16:30N 30°07' W 093°20'1 2.3
2018-Apr-15 16:01N 30°08' W 093°20'1 1.2
2018-Apr-15 15:31N 30°08' W 093°19'0 0.0
2018-Apr-15 14:59N 30°08' W 093°19'0 0.0
2018-Apr-15 14:30N 30°08' W 093°19'0 0.0
2018-Apr-15 13:57N 30°08' W 093°19'0 0.0
2018-Apr-15 13:30N 30°08' W 093°19'0 0.0
2018-Apr-15 12:56N 30°08' W 093°19'0 0.0
2018-Apr-15 12:30N 30°08' W 093°19'0 0.0
2018-Apr-15 12:00N 30°08' W 093°19'0 0.0
2018-Apr-15 11:30N 30°08' W 093°19'0 0.0
2018-Apr-15 10:58N 30°08' W 093°19'0 0.0
2018-Apr-15 10:27N 30°08' W 093°19'0 0.0
2018-Apr-15 09:59N 30°08' W 093°19'0 0.0
2018-Apr-15 09:30N 30°08' W 093°19'0 0.0
2018-Apr-15 09:00N 30°08' W 093°19'0 0.0
2018-Apr-15 08:30N 30°08' W 093°19'0 0.0
2018-Apr-15 08:00N 30°08' W 093°19'0 0.0
2018-Apr-15 07:30N 30°08' W 093°19'0 0.0
2018-Apr-15 07:00N 30°08' W 093°19'0 0.0
2018-Apr-15 06:29N 30°08' W 093°19'0 0.0
2018-Apr-15 06:00N 30°08' W 093°19'0 0.0
2018-Apr-15 05:30N 30°08' W 093°19'0 0.0
2018-Apr-15 04:59N 30°08' W 093°19'0 0.0
2018-Apr-15 04:30N 30°08' W 093°19'0 0.0
2018-Apr-15 04:00N 30°08' W 093°19'0 0.1
2018-Apr-15 03:30N 30°08' W 093°19'1 1.1
2018-Apr-15 03:01N 30°08' W 093°20'3 5.3
2018-Apr-15 02:30N 30°11' W 093°19'2 3.6
2018-Apr-15 02:00N 30°12' W 093°17'1 2.7
2018-Apr-15 01:30N 30°12' W 093°16'1 2.8
2018-Apr-15 01:00N 30°14' W 093°16'0 0.0
2018-Apr-15 00:30N 30°14' W 093°16'0 0.6
2018-Apr-15 00:00N 30°14' W 093°15'0 0.0
2018-Apr-14 23:31N 30°14' W 093°15'0 0.0
2018-Apr-14 23:00N 30°14' W 093°15'0 0.0
2018-Apr-14 22:30N 30°14' W 093°15'0 0.0
2018-Apr-14 22:01N 30°14' W 093°15'0 0.0
2018-Apr-14 21:30N 30°14' W 093°15'0 0.0
2018-Apr-14 21:00N 30°14' W 093°15'0 0.0
2018-Apr-14 20:30N 30°14' W 093°15'0 0.0
2018-Apr-14 20:00N 30°14' W 093°15'0 0.0
2018-Apr-14 19:30N 30°14' W 093°15'0 0.0
2018-Apr-14 18:59N 30°14' W 093°15'0 0.0
2018-Apr-14 18:30N 30°14' W 093°15'0 0.0
2018-Apr-14 18:01N 30°14' W 093°15'0 0.0
2018-Apr-14 17:30N 30°14' W 093°15'0 0.0
2018-Apr-14 17:00N 30°14' W 093°15'0 0.0
2018-Apr-14 16:30N 30°14' W 093°15'0 0.0
2018-Apr-14 16:01N 30°14' W 093°15'0 0.0
2018-Apr-14 15:30N 30°14' W 093°15'0 0.0
2018-Apr-14 15:00N 30°14' W 093°15'0 0.0
2018-Apr-14 14:30N 30°14' W 093°15'0 0.0
2018-Apr-14 14:00N 30°14' W 093°15'0 0.0
2018-Apr-14 13:30N 30°14' W 093°15'0 0.0
2018-Apr-14 13:00N 30°14' W 093°15'0 0.0
2018-Apr-14 12:30N 30°14' W 093°15'0 0.0
2018-Apr-14 12:01N 30°14' W 093°15'0 0.0
2018-Apr-14 11:30N 30°14' W 093°15'0 0.0
2018-Apr-14 11:00N 30°14' W 093°15'0 0.0
2018-Apr-14 10:30N 30°14' W 093°15'0 0.0
2018-Apr-14 10:00N 30°14' W 093°15'0 0.0
2018-Apr-14 09:31N 30°14' W 093°15'0 0.0
2018-Apr-14 09:00N 30°14' W 093°15'0 0.0
2018-Apr-14 08:30N 30°14' W 093°15'0 0.0
2018-Apr-14 08:00N 30°14' W 093°15'0 0.0
2018-Apr-14 07:31N 30°14' W 093°15'0 0.0
2018-Apr-14 07:00N 30°14' W 093°15'0 0.0
2018-Apr-14 06:30N 30°14' W 093°15'0 0.0
2018-Apr-14 06:00N 30°14' W 093°15'0 0.0
2018-Apr-14 05:30N 30°14' W 093°15'0 0.0
2018-Apr-14 05:00N 30°14' W 093°15'0 0.0
2018-Apr-14 04:30N 30°14' W 093°15'0 0.0
2018-Apr-14 04:00N 30°14' W 093°15'0 0.0
2018-Apr-14 03:30N 30°14' W 093°15'0 0.0
2018-Apr-14 03:00N 30°14' W 093°15'0 0.0
2018-Apr-14 02:30N 30°14' W 093°15'0 0.0
2018-Apr-14 02:00N 30°14' W 093°15'0 0.0
2018-Apr-14 01:30N 30°14' W 093°15'0 0.0
2018-Apr-14 01:00N 30°14' W 093°15'0 0.0
2018-Apr-14 00:30N 30°14' W 093°15'0 0.0
2018-Apr-14 00:01N 30°14' W 093°15'0 0.0
2018-Apr-13 23:30N 30°14' W 093°15'0 0.0
2018-Apr-13 23:00N 30°14' W 093°15'0 0.0
2018-Apr-13 22:30N 30°14' W 093°15'0 0.0
2018-Apr-13 22:00N 30°14' W 093°15'0 0.0
2018-Apr-13 21:30N 30°14' W 093°15'0 0.0
2018-Apr-13 21:00N 30°14' W 093°15'0 0.0
2018-Apr-13 20:30N 30°14' W 093°15'0 0.0
2018-Apr-13 20:00N 30°14' W 093°15'0 0.0
2018-Apr-13 19:30N 30°14' W 093°15'0 0.0
2018-Apr-13 19:00N 30°14' W 093°15'0 0.0
2018-Apr-13 18:31N 30°14' W 093°15'0 0.0
2018-Apr-13 18:00N 30°14' W 093°15'0 0.0
2018-Apr-13 17:30N 30°14' W 093°15'0 0.0
2018-Apr-13 17:00N 30°14' W 093°15'0 0.0
2018-Apr-13 16:30N 30°14' W 093°15'0 0.0
2018-Apr-13 16:00N 30°14' W 093°15'0 0.0
2018-Apr-13 15:30N 30°14' W 093°15'0 0.0
2018-Apr-13 15:00N 30°14' W 093°15'0 0.0
2018-Apr-13 14:30N 30°14' W 093°15'0 0.0
2018-Apr-13 14:00N 30°14' W 093°15'0 0.0
2018-Apr-13 13:30N 30°14' W 093°15'0 0.1
2018-Apr-13 13:00N 30°14' W 093°15'1 1.3
2018-Apr-13 12:30N 30°13' W 093°16'0 0.2
2018-Apr-13 12:00N 30°13' W 093°16'0 0.1
2018-Apr-13 11:30N 30°13' W 093°16'0 0.0
2018-Apr-13 11:00N 30°13' W 093°16'0 0.0
2018-Apr-13 10:30N 30°13' W 093°16'0 0.0
2018-Apr-13 10:00N 30°13' W 093°16'0 0.0
2018-Apr-13 09:30N 30°13' W 093°16'0 0.0
2018-Apr-13 09:00N 30°13' W 093°16'0 0.0
2018-Apr-13 08:30N 30°13' W 093°16'0 0.0
2018-Apr-13 08:00N 30°13' W 093°16'0 0.0
2018-Apr-13 07:30N 30°13' W 093°16'0 0.0
2018-Apr-13 06:59N 30°13' W 093°16'0 0.0
2018-Apr-13 06:31N 30°13' W 093°16'0 0.0
2018-Apr-13 06:00N 30°13' W 093°16'0 0.0
2018-Apr-13 05:30N 30°13' W 093°16'0 0.0
2018-Apr-13 05:00N 30°13' W 093°16'0 0.0
2018-Apr-13 04:30N 30°13' W 093°16'0 0.0
2018-Apr-13 04:00N 30°13' W 093°16'1 1.6
2018-Apr-13 03:30N 30°13' W 093°16'2 5.0
2018-Apr-13 03:00N 30°11' W 093°18'2 4.5
2018-Apr-13 02:30N 30°10' W 093°20'3 5.7
2018-Apr-13 02:00N 30°07' W 093°20'1 2.5
2018-Apr-13 01:30N 30°06' W 093°19'1 2.9
2018-Apr-13 01:00N 30°05' W 093°17'1 1.9
2018-Apr-13 00:30N 30°05' W 093°17'0 0.6
2018-Apr-13 00:00N 30°04' W 093°16'2 3.4
2018-Apr-12 23:31N 30°03' W 093°16'2 3.7
2018-Apr-12 23:00N 30°02' W 093°14'2 4.3
2018-Apr-12 22:30N 29°60' W 093°13'2 4.6
2018-Apr-12 22:00N 29°58' W 093°11'2 4.7
2018-Apr-12 21:30N 29°56' W 093°10'2 4.6
2018-Apr-12 21:00N 29°56' W 093°07'2 1.5
2018-Apr-12 19:54N 29°56' W 093°05'41 4.3
2018-Apr-12 10:15N 29°50' W 092°18'71 2.3
2018-Apr-11 03:13N 29°36' W 090°58'2 4.5
2018-Apr-11 02:43N 29°34' W 090°57'1 3.3
2018-Apr-11 02:29N 29°34' W 090°56'3 4.5
2018-Apr-11 01:51N 29°32' W 090°53'1 4.2
2018-Apr-11 01:30N 29°32' W 090°51'2 4.6
2018-Apr-11 01:00N 29°32' W 090°49'2 4.3
2018-Apr-11 00:30N 29°32' W 090°46'2 3.8
2018-Apr-11 00:00N 29°34' W 090°45'2 3.4
2018-Apr-10 23:30N 29°34' W 090°43'0 0.9
2018-Apr-10 23:00N 29°35' W 090°43'2 3.6
2018-Apr-10 22:30N 29°36' W 090°43'2 3.6
2018-Apr-10 22:00N 29°36' W 090°40'2 4.3
2018-Apr-10 21:30N 29°35' W 090°38'2 4.1
2018-Apr-10 21:00N 29°35' W 090°36'2 3.9
2018-Apr-10 20:30N 29°34' W 090°34'  

Dump ship's entire track history